createdAt,value
2019-03-24T00:00:59.961Z,14.90
2019-03-24T00:03:29.583Z,14.90
2019-03-24T00:05:58.902Z,15.00
2019-03-24T00:08:28.070Z,14.90
2019-03-24T00:10:57.495Z,14.90
2019-03-24T00:13:26.694Z,14.90
2019-03-24T00:15:55.940Z,14.90
2019-03-24T00:18:25.215Z,14.90
2019-03-24T00:20:54.495Z,14.90
2019-03-24T00:23:23.744Z,14.90
2019-03-24T00:25:52.999Z,14.90
2019-03-24T00:28:23.509Z,14.90
2019-03-24T00:30:52.726Z,14.90
2019-03-24T00:33:22.962Z,14.80
2019-03-24T00:35:52.138Z,14.80
2019-03-24T00:38:21.366Z,14.80
2019-03-24T00:40:50.639Z,14.80
2019-03-24T00:43:19.904Z,14.90
2019-03-24T00:45:49.180Z,14.80
2019-03-24T00:48:18.514Z,14.80
2019-03-24T00:50:47.714Z,14.80
2019-03-24T00:53:18.174Z,14.70
2019-03-24T00:55:47.357Z,14.70
2019-03-24T00:58:16.763Z,14.70
2019-03-24T01:00:48.689Z,14.70
2019-03-24T01:03:19.211Z,14.70
2019-03-24T01:05:48.581Z,14.70
2019-03-24T01:08:17.825Z,14.60
2019-03-24T01:10:47.132Z,14.60
2019-03-24T01:13:16.490Z,14.60
2019-03-24T01:15:47.926Z,14.60
2019-03-24T01:18:16.634Z,14.60
2019-03-24T01:20:47.081Z,14.60
2019-03-24T01:23:16.516Z,14.60
2019-03-24T01:25:45.849Z,14.60
2019-03-24T01:28:15.145Z,14.60
2019-03-24T01:30:44.391Z,14.50
2019-03-24T01:33:13.547Z,14.50
2019-03-24T01:35:42.808Z,14.50
2019-03-24T01:38:12.062Z,14.40
2019-03-24T01:40:42.946Z,14.40
2019-03-24T01:43:12.318Z,14.30
2019-03-24T01:45:41.637Z,14.30
2019-03-24T01:48:10.915Z,14.20
2019-03-24T01:50:40.288Z,14.10
2019-03-24T01:53:09.706Z,14.00
2019-03-24T01:55:39.150Z,14.10
2019-03-24T01:58:08.488Z,14.10
2019-03-24T02:00:38.048Z,14.00
2019-03-24T02:03:07.365Z,14.00
2019-03-24T02:05:36.621Z,14.00
2019-03-24T02:08:12.320Z,14.00
2019-03-24T02:10:41.674Z,14.00
2019-03-24T02:13:11.002Z,14.00
2019-03-24T02:15:40.275Z,14.00
2019-03-24T02:18:09.672Z,14.00
2019-03-24T02:20:38.828Z,14.00
2019-03-24T02:23:08.194Z,14.00
2019-03-24T02:25:37.547Z,14.00
2019-03-24T02:28:06.800Z,14.10
2019-03-24T02:30:36.145Z,14.10
2019-03-24T02:33:05.395Z,14.10
2019-03-24T02:35:34.711Z,14.20
2019-03-24T02:38:03.966Z,14.10
2019-03-24T02:40:33.385Z,14.10
2019-03-24T02:43:02.763Z,14.10
2019-03-24T02:45:32.207Z,14.10
2019-03-24T02:48:01.439Z,14.10
2019-03-24T02:50:30.798Z,14.10
2019-03-24T02:52:59.944Z,14.10
2019-03-24T02:55:29.190Z,14.10
2019-03-24T02:57:58.984Z,14.10
2019-03-24T03:00:28.191Z,14.10
2019-03-24T03:02:57.419Z,14.10
2019-03-24T03:05:26.663Z,14.10
2019-03-24T03:07:55.920Z,14.10
2019-03-24T03:10:25.198Z,14.10
2019-03-24T03:12:54.519Z,14.10
2019-03-24T03:15:23.680Z,14.10
2019-03-24T03:17:52.925Z,14.10
2019-03-24T03:20:22.190Z,14.10
2019-03-24T03:22:51.439Z,14.10
2019-03-24T03:25:20.671Z,14.00
2019-03-24T03:27:49.975Z,14.00
2019-03-24T03:30:19.349Z,14.00
2019-03-24T03:32:48.649Z,14.00
2019-03-24T03:35:17.941Z,14.00
2019-03-24T03:37:47.254Z,13.90
2019-03-24T03:40:16.593Z,14.00
2019-03-24T03:42:45.860Z,14.00
2019-03-24T03:45:19.971Z,14.00
2019-03-24T03:47:49.277Z,14.00
2019-03-24T03:50:18.648Z,14.00
2019-03-24T03:52:47.963Z,14.00
2019-03-24T03:55:17.202Z,13.90
2019-03-24T03:57:46.437Z,13.90
2019-03-24T04:00:15.679Z,13.90
2019-03-24T04:02:45.058Z,13.90
2019-03-24T04:05:26.638Z,13.70
2019-03-24T04:07:55.883Z,13.60
2019-03-24T04:10:35.141Z,13.60
2019-03-24T04:13:04.467Z,13.50
2019-03-24T04:15:33.778Z,13.50
2019-03-24T04:18:02.954Z,13.50
2019-03-24T04:20:44.160Z,13.50
2019-03-24T04:23:13.418Z,13.50
2019-03-24T04:25:42.699Z,13.50
2019-03-24T04:28:11.866Z,13.50
2019-03-24T04:30:42.333Z,13.40
2019-03-24T04:33:11.582Z,13.40
2019-03-24T04:35:41.907Z,13.40
2019-03-24T04:38:11.089Z,13.40
2019-03-24T04:40:40.509Z,13.40
2019-03-24T04:43:09.751Z,13.50
2019-03-24T04:45:39.108Z,13.40
2019-03-24T04:48:08.335Z,13.50
2019-03-24T04:50:37.489Z,13.40
2019-03-24T04:53:06.689Z,13.50
2019-03-24T04:55:35.935Z,13.50
2019-03-24T04:58:05.093Z,13.50
2019-03-24T05:00:36.956Z,13.50
2019-03-24T05:03:06.186Z,13.50
2019-03-24T05:05:35.398Z,13.50
2019-03-24T05:08:05.575Z,13.50
2019-03-24T05:10:34.982Z,13.50
2019-03-24T05:13:04.316Z,13.50
2019-03-24T05:15:33.569Z,13.50
2019-03-24T05:18:02.761Z,13.60
2019-03-24T05:20:31.961Z,13.60
2019-03-24T05:23:01.181Z,13.60
2019-03-24T05:25:31.990Z,13.60
2019-03-24T05:28:01.261Z,13.60
2019-03-24T05:30:32.111Z,13.60
2019-03-24T05:33:01.289Z,13.60
2019-03-24T05:35:30.452Z,13.60
2019-03-24T05:37:59.682Z,13.60
2019-03-24T05:40:28.915Z,13.60
2019-03-24T05:42:58.290Z,13.60
2019-03-24T05:45:27.600Z,13.70
2019-03-24T05:47:56.908Z,13.70
2019-03-24T05:50:26.125Z,13.70
2019-03-24T05:52:55.425Z,13.70
2019-03-24T05:55:24.707Z,13.70
2019-03-24T05:57:53.877Z,13.70
2019-03-24T06:00:23.024Z,13.70
2019-03-24T06:02:52.342Z,13.80
2019-03-24T06:05:21.616Z,13.80
2019-03-24T06:07:50.926Z,13.80
2019-03-24T06:10:20.205Z,13.80
2019-03-24T06:12:49.372Z,13.80
2019-03-24T06:15:18.599Z,13.90
2019-03-24T06:17:48.255Z,13.90
2019-03-24T06:20:17.544Z,14.00
2019-03-24T06:22:46.863Z,14.10
2019-03-24T06:25:16.115Z,14.10
2019-03-24T06:27:45.372Z,14.10
2019-03-24T06:30:14.909Z,14.10
2019-03-24T06:32:44.060Z,14.20
2019-03-24T06:35:13.292Z,14.20
2019-03-24T06:37:42.591Z,14.30
2019-03-24T06:40:12.401Z,14.40
2019-03-24T06:42:41.564Z,14.40
2019-03-24T06:45:10.716Z,14.50
2019-03-24T06:47:39.902Z,14.50
2019-03-24T06:50:09.301Z,14.60
2019-03-24T06:52:38.452Z,14.70
2019-03-24T06:55:07.671Z,14.70
2019-03-24T06:57:37.051Z,14.80
2019-03-24T07:00:08.063Z,14.80
2019-03-24T07:02:37.391Z,14.90
2019-03-24T07:05:07.327Z,14.90
2019-03-24T07:07:36.695Z,15.00
2019-03-24T07:10:07.719Z,14.90
2019-03-24T07:12:37.280Z,15.00
2019-03-24T07:15:08.291Z,15.10
2019-03-24T07:17:37.744Z,15.10
2019-03-24T07:20:08.605Z,15.10
2019-03-24T07:22:37.868Z,15.10
2019-03-24T07:25:07.201Z,15.20
2019-03-24T07:27:36.800Z,15.20
2019-03-24T07:30:07.873Z,15.20
2019-03-24T07:32:37.223Z,15.20
2019-03-24T07:35:07.208Z,15.20
2019-03-24T07:37:36.801Z,15.30
2019-03-24T07:40:07.870Z,15.30
2019-03-24T07:42:37.181Z,15.40
2019-03-24T07:45:07.711Z,15.40
2019-03-24T07:47:39.256Z,15.50
2019-03-24T07:50:08.922Z,15.50
2019-03-24T07:52:38.178Z,15.60
2019-03-24T07:55:07.619Z,15.60
2019-03-24T07:57:36.818Z,15.70
2019-03-24T08:00:07.204Z,15.70
2019-03-24T08:02:36.509Z,15.70
2019-03-24T08:05:06.630Z,15.80
2019-03-24T08:07:35.820Z,15.80
2019-03-24T08:10:06.345Z,15.90
2019-03-24T08:12:36.787Z,15.90
2019-03-24T08:15:06.197Z,16.00
2019-03-24T08:17:39.981Z,16.10
2019-03-24T08:20:09.269Z,16.10
2019-03-24T08:22:39.494Z,16.10
2019-03-24T08:25:08.656Z,16.20
2019-03-24T08:27:39.159Z,16.30
2019-03-24T08:30:08.409Z,16.30
2019-03-24T08:32:37.555Z,16.40
2019-03-24T08:35:06.876Z,16.40
2019-03-24T08:37:36.212Z,16.50
2019-03-24T08:40:07.076Z,16.50
2019-03-24T08:42:36.490Z,16.60
2019-03-24T08:45:08.270Z,16.70
2019-03-24T08:47:37.529Z,16.70
2019-03-24T08:50:07.340Z,16.80
2019-03-24T08:52:36.641Z,16.80
2019-03-24T08:55:06.446Z,16.90
2019-03-24T08:57:35.912Z,16.90
2019-03-24T09:00:06.624Z,17.00
2019-03-24T09:02:36.844Z,17.00
2019-03-24T09:05:06.878Z,17.10
2019-03-24T09:07:36.231Z,17.20
2019-03-24T09:10:05.884Z,17.20
2019-03-24T09:12:35.158Z,17.30
2019-03-24T09:15:05.173Z,17.30
2019-03-24T09:17:34.423Z,17.40
2019-03-24T09:20:04.376Z,17.50
2019-03-24T09:22:33.571Z,17.50
2019-03-24T09:25:03.102Z,17.60
2019-03-24T09:27:32.415Z,17.70
2019-03-24T09:30:01.587Z,17.70
2019-03-24T09:32:30.763Z,17.80
2019-03-24T09:35:00.027Z,17.90
2019-03-24T09:37:29.408Z,17.90
2019-03-24T09:39:58.808Z,17.90
2019-03-24T09:42:28.044Z,18.00
2019-03-24T09:44:57.290Z,18.10
2019-03-24T09:47:26.537Z,18.10
2019-03-24T09:49:55.755Z,18.10
2019-03-24T09:52:24.945Z,18.30
2019-03-24T09:54:54.155Z,18.30
2019-03-24T09:57:23.448Z,18.40
2019-03-24T09:59:52.653Z,18.40
2019-03-24T10:02:21.847Z,18.40
2019-03-24T10:04:51.154Z,18.50
2019-03-24T10:07:20.364Z,18.50
2019-03-24T10:09:49.563Z,18.60
2019-03-24T10:12:18.835Z,18.70
2019-03-24T10:14:48.458Z,18.80
2019-03-24T10:17:17.846Z,18.80
2019-03-24T10:19:47.121Z,18.80
2019-03-24T10:22:16.853Z,18.90
2019-03-24T10:24:46.030Z,19.00
2019-03-24T10:27:15.300Z,19.00
2019-03-24T10:29:44.552Z,19.10
2019-03-24T10:32:13.818Z,19.20
2019-03-24T10:34:43.124Z,19.20
2019-03-24T10:37:12.292Z,19.30
2019-03-24T10:39:41.570Z,19.40
2019-03-24T10:42:10.814Z,19.40
2019-03-24T10:44:42.492Z,19.40
2019-03-24T10:47:11.754Z,19.50
2019-03-24T10:49:40.930Z,19.50
2019-03-24T10:52:10.183Z,19.60
2019-03-24T10:54:39.434Z,19.70
2019-03-24T10:57:08.704Z,19.70
2019-03-24T10:59:37.982Z,19.80
2019-03-24T11:02:07.226Z,19.80
2019-03-24T11:04:36.453Z,19.90
2019-03-24T11:07:05.702Z,20.00
2019-03-24T11:09:34.895Z,20.00
2019-03-24T11:12:04.119Z,20.10
2019-03-24T11:14:33.360Z,20.20
2019-03-24T11:17:02.745Z,20.20
2019-03-24T11:19:36.059Z,20.20
2019-03-24T11:22:02.843Z,20.30
2019-03-24T11:24:32.031Z,20.30
2019-03-24T11:27:01.198Z,20.30
2019-03-24T11:29:33.316Z,20.40
2019-03-24T11:32:02.715Z,20.40
2019-03-24T11:34:32.012Z,20.60
2019-03-24T11:37:01.274Z,20.60
2019-03-24T11:39:30.585Z,20.60
2019-03-24T11:41:59.767Z,20.60
2019-03-24T11:44:29.007Z,20.70
2019-03-24T11:46:58.399Z,20.70
2019-03-24T11:49:27.648Z,20.80
2019-03-24T11:51:56.987Z,20.80
2019-03-24T11:54:26.232Z,20.90
2019-03-24T11:57:14.828Z,20.90
2019-03-24T11:59:53.927Z,21.00
2019-03-24T12:02:23.237Z,21.00
2019-03-24T12:04:52.446Z,21.10
2019-03-24T12:07:21.632Z,21.20
2019-03-24T12:09:51.435Z,21.20
2019-03-24T12:12:22.128Z,21.20
2019-03-24T12:14:51.329Z,21.30
2019-03-24T12:17:20.582Z,21.30
2019-03-24T12:19:56.857Z,21.40
2019-03-24T12:22:21.336Z,21.40
2019-03-24T12:24:50.962Z,21.40
2019-03-24T12:27:20.416Z,21.60
2019-03-24T12:29:49.758Z,21.60
2019-03-24T12:32:21.904Z,21.70
2019-03-24T12:34:51.141Z,21.80
2019-03-24T12:37:20.608Z,21.80
2019-03-24T12:39:51.377Z,22.00
2019-03-24T12:42:21.119Z,22.20
2019-03-24T12:44:50.707Z,22.20
2019-03-24T12:47:21.130Z,22.30
2019-03-24T12:49:50.352Z,22.40
2019-03-24T12:52:20.371Z,22.50
2019-03-24T12:54:50.899Z,22.60
2019-03-24T12:57:21.536Z,22.60
2019-03-24T12:59:50.866Z,22.70
2019-03-24T13:02:20.317Z,22.80
2019-03-24T13:04:49.701Z,22.80
2019-03-24T13:07:19.326Z,22.90
2019-03-24T13:09:49.112Z,23.00
2019-03-24T13:12:19.990Z,23.00
2019-03-24T13:14:49.616Z,23.10
2019-03-24T13:17:19.448Z,23.10
2019-03-24T13:19:48.823Z,23.20
2019-03-24T13:22:18.709Z,23.20
2019-03-24T13:24:49.518Z,23.20
2019-03-24T13:27:18.897Z,23.40
2019-03-24T13:29:48.299Z,23.50
2019-03-24T13:32:18.535Z,23.70
2019-03-24T13:34:47.804Z,23.70
2019-03-24T13:37:17.276Z,23.80
2019-03-24T13:39:46.447Z,23.90
2019-03-24T13:42:17.421Z,23.90
2019-03-24T13:44:47.191Z,23.90
2019-03-24T13:47:17.207Z,23.90
2019-03-24T13:49:48.011Z,24.00
2019-03-24T13:52:18.648Z,24.20
2019-03-24T13:54:48.767Z,24.40
2019-03-24T13:57:20.261Z,24.50
2019-03-24T13:59:49.658Z,24.50
2019-03-24T14:02:19.047Z,24.50
2019-03-24T14:04:48.614Z,24.40
2019-03-24T14:07:19.335Z,24.50
2019-03-24T14:09:48.677Z,24.60
2019-03-24T14:12:17.988Z,24.70
2019-03-24T14:14:47.235Z,24.90
2019-03-24T14:17:16.805Z,24.90
2019-03-24T14:19:46.510Z,25.10
2019-03-24T14:22:27.236Z,25.30
2019-03-24T14:24:56.955Z,25.40
2019-03-24T14:27:26.155Z,25.50
2019-03-24T14:29:55.688Z,25.60
2019-03-24T14:32:25.045Z,25.50
2019-03-24T14:34:54.485Z,25.50
2019-03-24T14:37:23.887Z,25.40
2019-03-24T14:39:55.264Z,25.50
2019-03-24T14:42:30.207Z,25.50
2019-03-24T14:45:01.062Z,25.60
2019-03-24T14:47:31.576Z,25.60
2019-03-24T14:50:01.275Z,25.50
2019-03-24T14:52:30.831Z,25.50
2019-03-24T14:55:00.375Z,25.50
2019-03-24T14:57:29.820Z,25.50
2019-03-24T14:59:59.350Z,25.60
2019-03-24T15:02:28.618Z,25.60
2019-03-24T15:04:57.922Z,25.70
2019-03-24T15:07:28.376Z,26.00
2019-03-24T15:09:57.876Z,26.00
2019-03-24T15:12:27.132Z,25.90
2019-03-24T15:14:56.547Z,25.90
2019-03-24T15:17:25.933Z,26.00
2019-03-24T15:19:55.524Z,26.20
2019-03-24T15:22:25.020Z,26.30
2019-03-24T15:24:54.197Z,26.50
2019-03-24T15:27:23.422Z,26.40
2019-03-24T15:29:52.651Z,26.50
2019-03-24T15:32:21.975Z,26.60
2019-03-24T15:34:51.236Z,26.60
2019-03-24T15:37:20.547Z,26.80
2019-03-24T15:39:49.813Z,26.70
2019-03-24T15:42:19.071Z,26.80
2019-03-24T15:44:48.246Z,27.00
2019-03-24T15:47:17.448Z,27.20
2019-03-24T15:49:46.712Z,27.50
2019-03-24T15:52:16.179Z,27.80
2019-03-24T15:54:45.416Z,28.50
2019-03-24T15:57:14.650Z,29.40
2019-03-24T15:59:47.548Z,30.00
2019-03-24T16:02:16.214Z,31.10
2019-03-24T16:04:45.516Z,31.60
2019-03-24T16:07:14.872Z,32.30
2019-03-24T16:09:44.463Z,32.60
2019-03-24T16:12:13.719Z,33.40
2019-03-24T16:14:42.986Z,33.70
2019-03-24T16:17:12.334Z,34.20
2019-03-24T16:19:41.609Z,34.30
2019-03-24T16:22:10.986Z,34.70
2019-03-24T16:24:40.318Z,35.00
2019-03-24T16:27:09.587Z,35.00
2019-03-24T16:29:38.919Z,34.30
2019-03-24T16:32:08.182Z,34.30
2019-03-24T16:34:37.537Z,33.90
2019-03-24T16:37:06.783Z,33.70
2019-03-24T16:39:36.077Z,33.50
2019-03-24T16:42:05.325Z,32.80
2019-03-24T16:44:34.718Z,30.60
2019-03-24T16:47:03.947Z,29.40
2019-03-24T16:49:33.175Z,28.50
2019-03-24T16:52:02.423Z,27.70
2019-03-24T16:54:31.684Z,26.90
2019-03-24T16:57:01.002Z,26.50
2019-03-24T16:59:30.314Z,26.20
2019-03-24T17:01:59.580Z,26.00
2019-03-24T17:04:28.863Z,25.70
2019-03-24T17:06:58.204Z,25.60
2019-03-24T17:09:27.489Z,26.10
2019-03-24T17:11:57.135Z,25.70
2019-03-24T17:14:26.597Z,25.30
2019-03-24T17:16:56.037Z,25.00
2019-03-24T17:19:25.536Z,24.90
2019-03-24T17:21:54.834Z,24.60
2019-03-24T17:24:24.137Z,24.40
2019-03-24T17:26:53.542Z,24.10
2019-03-24T17:29:23.282Z,23.80
2019-03-24T17:31:53.508Z,23.60
2019-03-24T17:34:22.734Z,23.40
2019-03-24T17:36:52.079Z,23.20
2019-03-24T17:39:21.522Z,23.00
2019-03-24T17:41:50.775Z,22.80
2019-03-24T17:44:22.500Z,22.70
2019-03-24T17:46:51.772Z,22.50
2019-03-24T17:49:21.119Z,22.40
2019-03-24T17:52:00.185Z,22.20
2019-03-24T17:54:21.291Z,22.10
2019-03-24T17:56:50.504Z,22.00
2019-03-24T17:59:19.694Z,21.90
2019-03-24T18:01:48.958Z,21.80
2019-03-24T18:04:24.552Z,21.60
2019-03-24T18:06:50.192Z,21.50
2019-03-24T18:09:19.528Z,21.40
2019-03-24T18:11:49.988Z,21.30
2019-03-24T18:14:19.189Z,21.30
2019-03-24T18:16:48.913Z,21.20
2019-03-24T18:19:18.204Z,21.10
2019-03-24T18:21:47.531Z,21.00
2019-03-24T18:24:17.055Z,20.90
2019-03-24T18:26:46.463Z,20.80
2019-03-24T18:29:15.836Z,20.70
2019-03-24T18:31:45.156Z,20.70
2019-03-24T18:34:14.701Z,20.60
2019-03-24T18:36:44.059Z,20.50
2019-03-24T18:39:14.420Z,20.40
2019-03-24T18:41:43.767Z,20.40
2019-03-24T18:44:13.090Z,20.30
2019-03-24T18:46:42.335Z,20.20
2019-03-24T18:49:11.684Z,20.10
2019-03-24T18:51:41.081Z,20.10
2019-03-24T18:54:10.566Z,20.00
2019-03-24T18:56:40.206Z,19.90
2019-03-24T18:59:09.580Z,19.80
2019-03-24T19:01:38.801Z,19.80
2019-03-24T19:04:08.132Z,19.70
2019-03-24T19:06:37.321Z,19.70
2019-03-24T19:09:08.433Z,19.60
2019-03-24T19:11:37.607Z,19.50
2019-03-24T19:14:06.888Z,19.50
2019-03-24T19:16:36.075Z,19.40
2019-03-24T19:19:05.298Z,19.40
2019-03-24T19:21:34.611Z,19.30
2019-03-24T19:24:03.917Z,19.30
2019-03-24T19:26:33.208Z,19.30
2019-03-24T19:29:02.676Z,19.20
2019-03-24T19:31:31.962Z,19.10
2019-03-24T19:34:02.442Z,19.10
2019-03-24T19:36:31.836Z,19.10
2019-03-24T19:39:01.131Z,19.00
2019-03-24T19:41:31.956Z,18.90
2019-03-24T19:44:01.199Z,18.90
2019-03-24T19:46:31.636Z,18.80
2019-03-24T19:49:00.968Z,18.80
2019-03-24T19:51:30.320Z,18.80
2019-03-24T19:53:59.874Z,18.70
2019-03-24T19:56:29.135Z,18.70
2019-03-24T19:58:58.537Z,18.70
2019-03-24T20:01:27.939Z,18.60
2019-03-24T20:03:57.208Z,18.60
2019-03-24T20:06:26.546Z,18.50
2019-03-24T20:08:55.803Z,18.50
2019-03-24T20:11:25.041Z,18.50
2019-03-24T20:13:54.431Z,18.50
2019-03-24T20:16:43.215Z,18.40
2019-03-24T20:19:12.515Z,18.40
2019-03-24T20:21:41.808Z,18.40
2019-03-24T20:24:11.197Z,18.40
2019-03-24T20:26:40.519Z,18.40
2019-03-24T20:29:09.734Z,18.30
2019-03-24T20:31:58.444Z,18.30
2019-03-24T20:34:27.716Z,18.30
2019-03-24T20:36:56.888Z,18.20
2019-03-24T20:39:26.178Z,18.20
2019-03-24T20:41:55.479Z,18.20
2019-03-24T20:44:24.675Z,18.10
2019-03-24T20:46:53.939Z,18.10
2019-03-24T20:49:23.213Z,18.10
2019-03-24T20:51:52.487Z,18.00
2019-03-24T20:54:21.805Z,18.00
2019-03-24T20:56:50.974Z,18.00
2019-03-24T20:59:20.259Z,17.90
2019-03-24T21:01:49.633Z,18.00
2019-03-24T21:04:20.309Z,17.90
2019-03-24T21:06:49.826Z,17.90
2019-03-24T21:09:19.171Z,17.80
2019-03-24T21:11:48.494Z,17.80
2019-03-24T21:14:23.817Z,17.80
2019-03-24T21:16:53.707Z,17.80
2019-03-24T21:19:22.902Z,17.70
2019-03-24T21:21:52.309Z,17.70
2019-03-24T21:24:21.710Z,17.70
2019-03-24T21:26:50.874Z,17.70
2019-03-24T21:29:20.066Z,17.60
2019-03-24T21:31:49.300Z,17.60
2019-03-24T21:34:18.994Z,17.60
2019-03-24T21:36:49.359Z,17.60
2019-03-24T21:39:18.615Z,17.60
2019-03-24T21:41:48.006Z,17.50
2019-03-24T21:44:17.255Z,17.50
2019-03-24T21:46:47.417Z,17.50
2019-03-24T21:49:16.654Z,17.40
2019-03-24T21:51:55.994Z,17.40
2019-03-24T21:54:25.249Z,17.40
2019-03-24T21:56:55.404Z,17.40
2019-03-24T21:59:24.595Z,17.30
2019-03-24T22:01:53.848Z,17.30
2019-03-24T22:04:23.166Z,17.30
2019-03-24T22:06:52.429Z,17.30
2019-03-24T22:09:21.793Z,17.20
2019-03-24T22:11:50.969Z,17.20
2019-03-24T22:14:20.259Z,17.20
2019-03-24T22:16:49.454Z,17.20
2019-03-24T22:19:18.697Z,17.10
2019-03-24T22:21:47.922Z,17.10
2019-03-24T22:24:18.347Z,17.10
2019-03-24T22:26:47.656Z,17.00
2019-03-24T22:29:16.845Z,17.00
2019-03-24T22:31:46.069Z,17.00
2019-03-24T22:34:15.334Z,17.00
2019-03-24T22:36:44.632Z,16.90
2019-03-24T22:39:13.886Z,16.90
2019-03-24T22:41:43.948Z,16.90
2019-03-24T22:44:13.300Z,16.90
2019-03-24T22:46:42.759Z,16.80
2019-03-24T22:49:11.932Z,16.80
2019-03-24T22:51:41.114Z,16.80
2019-03-24T22:54:10.281Z,16.80
2019-03-24T22:56:39.488Z,16.80
2019-03-24T22:59:08.698Z,16.80
2019-03-24T23:01:37.890Z,16.80
2019-03-24T23:04:07.063Z,16.70
2019-03-24T23:06:36.410Z,16.70
2019-03-24T23:09:07.481Z,16.70
2019-03-24T23:11:36.800Z,16.70
2019-03-24T23:14:06.048Z,16.70
2019-03-24T23:16:35.288Z,16.70
2019-03-24T23:19:04.454Z,16.60
2019-03-24T23:21:33.670Z,16.60
2019-03-24T23:24:14.602Z,16.60
2019-03-24T23:26:33.950Z,16.60
2019-03-24T23:29:03.194Z,16.60
2019-03-24T23:31:34.140Z,16.60
2019-03-24T23:34:03.566Z,16.50
2019-03-24T23:36:32.720Z,16.50
2019-03-24T23:39:02.022Z,16.50
2019-03-24T23:41:32.830Z,16.50
2019-03-24T23:44:04.027Z,16.50
2019-03-24T23:46:33.085Z,16.50
2019-03-24T23:49:02.284Z,16.50
2019-03-24T23:51:31.678Z,16.40
2019-03-24T23:54:00.939Z,16.40
2019-03-24T23:56:30.092Z,16.40
2019-03-24T23:58:59.490Z,16.40
